sensor_id;sensor_type;location;lat;lon;timestamp;pressure;altitude;pressure_sealevel;temperature;humidity
60427;BME280;46274;47.168;27.604;2022-09-09T00:05:14;99956.72;;;15.37;73.46
60427;BME280;46274;47.168;27.604;2022-09-09T00:11:28;99950.59;;;15.81;72.53
60427;BME280;46274;47.168;27.604;2022-09-09T00:23:55;99945.31;;;15.93;70.79
60427;BME280;46274;47.168;27.604;2022-09-09T00:36:13;99943.66;;;15.79;71.91
60427;BME280;46274;47.168;27.604;2022-09-09T00:42:21;99922.44;;;15.74;71.06
60427;BME280;46274;47.168;27.604;2022-09-09T00:48:34;99891.81;;;15.32;71.02
60427;BME280;46274;47.168;27.604;2022-09-09T01:00:53;99912.78;;;15.78;69.25
60427;BME280;46274;47.168;27.604;2022-09-09T01:07:16;99901.47;;;14.75;72.96
60427;BME280;46274;47.168;27.604;2022-09-09T01:13:26;99961.09;;;15.64;71.12
60427;BME280;46274;47.168;27.604;2022-09-09T01:32:41;99922.47;;;15.01;72.33
60427;BME280;46274;47.168;27.604;2022-09-09T01:38:43;99850.06;;;14.98;71.30
60427;BME280;46274;47.168;27.604;2022-09-09T01:44:45;99920.16;;;15.04;71.78
60427;BME280;46274;47.168;27.604;2022-09-09T01:50:47;99777.22;;;14.32;71.44
60427;BME280;46274;47.168;27.604;2022-09-09T01:57:21;99913.03;;;15.03;71.42
60427;BME280;46274;47.168;27.604;2022-09-09T02:03:28;99840.63;;;14.81;70.44
60427;BME280;46274;47.168;27.604;2022-09-09T02:09:30;99885.97;;;15.29;69.91
60427;BME280;46274;47.168;27.604;2022-09-09T02:15:35;99913.84;;;14.71;72.60
60427;BME280;46274;47.168;27.604;2022-09-09T02:21:42;99906.75;;;15.16;69.96
60427;BME280;46274;47.168;27.604;2022-09-09T02:27:47;99911.53;;;15.47;68.84
60427;BME280;46274;47.168;27.604;2022-09-09T02:34:01;99833.31;;;14.95;70.14
60427;BME280;46274;47.168;27.604;2022-09-09T02:40:05;99873.78;;;15.11;69.86
60427;BME280;46274;47.168;27.604;2022-09-09T02:58:39;99903.16;;;14.89;71.54
60427;BME280;46274;47.168;27.604;2022-09-09T03:04:41;99872.53;;;14.87;71.40
60427;BME280;46274;47.168;27.604;2022-09-09T03:10:45;99816.22;;;14.26;72.20
60427;BME280;46274;47.168;27.604;2022-09-09T03:16:47;99868.75;;;14.81;71.53
60427;BME280;46274;47.168;27.604;2022-09-09T03:22:50;99825.69;;;14.30;72.64
60427;BME280;46274;47.168;27.604;2022-09-09T03:29:00;99759.16;;;13.98;73.09
60427;BME280;46274;47.168;27.604;2022-09-09T03:35:27;99793.25;;;14.62;70.75
60427;BME280;46274;47.168;27.604;2022-09-09T03:41:32;99701.31;;;13.76;72.01
60427;BME280;46274;47.168;27.604;2022-09-09T03:47:52;99802.81;;;14.18;72.63
60427;BME280;46274;47.168;27.604;2022-09-09T03:54:04;99755.34;;;13.79;73.67
60427;BME280;46274;47.168;27.604;2022-09-09T04:00:14;99796.91;;;14.14;74.18
60427;BME280;46274;47.168;27.604;2022-09-09T04:06:41;99837.88;;;14.61;73.97
60427;BME280;46274;47.168;27.604;2022-09-09T04:12:48;99745.97;;;14.02;73.20
60427;BME280;46274;47.168;27.604;2022-09-09T04:18:59;99836.91;;;13.94;75.81
60427;BME280;46274;47.168;27.604;2022-09-09T04:25:13;99826.31;;;14.39;74.35
60427;BME280;46274;47.168;27.604;2022-09-09T04:31:31;99799.25;;;14.24;73.75
60427;BME280;46274;47.168;27.604;2022-09-09T04:37:37;99742.44;;;14.21;72.08
60427;BME280;46274;47.168;27.604;2022-09-09T04:43:39;99852.78;;;14.65;73.13
60427;BME280;46274;47.168;27.604;2022-09-09T04:49:41;99863.09;;;14.96;72.34
60427;BME280;46274;47.168;27.604;2022-09-09T04:55:43;99821.75;;;14.86;72.07
60427;BME280;46274;47.168;27.604;2022-09-09T05:01:44;99887.19;;;15.33;71.78
60427;BME280;46274;47.168;27.604;2022-09-09T05:07:47;99860.75;;;15.26;72.83
60427;BME280;46274;47.168;27.604;2022-09-09T05:13:54;99808.72;;;15.08;71.88
60427;BME280;46274;47.168;27.604;2022-09-09T05:19:56;99864.31;;;15.34;72.30
60427;BME280;46274;47.168;27.604;2022-09-09T05:25:58;99846.41;;;15.51;71.47
60427;BME280;46274;47.168;27.604;2022-09-09T05:32:00;99827.28;;;15.64;70.54
60427;BME280;46274;47.168;27.604;2022-09-09T05:38:05;99719.41;;;14.77;70.44
60427;BME280;46274;47.168;27.604;2022-09-09T05:58:58;99828.31;;;15.63;69.51
60427;BME280;46274;47.168;27.604;2022-09-09T06:05:01;99797.94;;;15.40;69.29
60427;BME280;46274;47.168;27.604;2022-09-09T06:11:07;99898.16;;;16.11;68.93
60427;BME280;46274;47.168;27.604;2022-09-09T06:17:09;99911.47;;;15.87;70.95
60427;BME280;46274;47.168;27.604;2022-09-09T06:23:14;99809.75;;;15.07;72.22
60427;BME280;46274;47.168;27.604;2022-09-09T06:29:16;99907.75;;;15.75;72.17
60427;BME280;46274;47.168;27.604;2022-09-09T06:35:18;99895.13;;;15.61;72.21
60427;BME280;46274;47.168;27.604;2022-09-09T06:41:21;99924.06;;;15.95;71.42
60427;BME280;46274;47.168;27.604;2022-09-09T06:47:23;99903.00;;;16.02;69.56
60427;BME280;46274;47.168;27.604;2022-09-09T06:53:26;99919.72;;;16.32;69.00
60427;BME280;46274;47.168;27.604;2022-09-09T06:59:28;99895.00;;;16.07;69.79
60427;BME280;46274;47.168;27.604;2022-09-09T07:05:32;99959.63;;;16.40;70.11
60427;BME280;46274;47.168;27.604;2022-09-09T07:11:42;99973.69;;;16.50;69.77
60427;BME280;46274;47.168;27.604;2022-09-09T07:17:44;99968.59;;;16.61;67.51
60427;BME280;46274;47.168;27.604;2022-09-09T07:23:46;99949.00;;;16.64;67.51
60427;BME280;46274;47.168;27.604;2022-09-09T07:29:48;99938.59;;;17.11;67.08
60427;BME280;46274;47.168;27.604;2022-09-09T07:35:50;99982.59;;;16.84;68.70
60427;BME280;46274;47.168;27.604;2022-09-09T07:41:53;99955.13;;;16.97;67.31
60427;BME280;46274;47.168;27.604;2022-09-09T07:47:56;99990.53;;;17.49;66.41
60427;BME280;46274;47.168;27.604;2022-09-09T07:54:06;99971.00;;;17.39;66.39
60427;BME280;46274;47.168;27.604;2022-09-09T08:00:11;99963.50;;;17.03;68.26
60427;BME280;46274;47.168;27.604;2022-09-09T08:06:13;99941.34;;;16.79;68.86
60427;BME280;46274;47.168;27.604;2022-09-09T08:12:15;99948.16;;;17.52;66.29
60427;BME280;46274;47.168;27.604;2022-09-09T08:18:18;99935.16;;;17.22;67.16
60427;BME280;46274;47.168;27.604;2022-09-09T08:24:19;99936.06;;;17.34;66.46
60427;BME280;46274;47.168;27.604;2022-09-09T08:30:21;99957.16;;;17.59;66.20
60427;BME280;46274;47.168;27.604;2022-09-09T08:36:25;99944.97;;;17.55;67.42
60427;BME280;46274;47.168;27.604;2022-09-09T08:42:49;99930.97;;;17.63;68.15
60427;BME280;46274;47.168;27.604;2022-09-09T09:02:11;99892.81;;;17.25;71.95
60427;BME280;46274;47.168;27.604;2022-09-09T09:08:43;99870.28;;;17.22;72.23
60427;BME280;46274;47.168;27.604;2022-09-09T09:14:50;99903.56;;;17.63;72.40
60427;BME280;46274;47.168;27.604;2022-09-09T09:33:35;99938.72;;;17.91;72.93
60427;BME280;46274;47.168;27.604;2022-09-09T09:39:42;99907.63;;;18.34;71.43
60427;BME280;46274;47.168;27.604;2022-09-09T09:46:04;99921.53;;;18.51;71.00
60427;BME280;46274;47.168;27.604;2022-09-09T09:52:22;99915.09;;;18.57;70.92
60427;BME280;46274;47.168;27.604;2022-09-09T10:04:47;99852.06;;;17.72;72.46
60427;BME280;46274;47.168;27.604;2022-09-09T10:36:44;99936.50;;;18.18;72.37
60427;BME280;46274;47.168;27.604;2022-09-09T10:42:48;99945.63;;;19.33;69.46
60427;BME280;46274;47.168;27.604;2022-09-09T10:55:14;99959.88;;;19.65;69.71
60427;BME280;46274;47.168;27.604;2022-09-09T11:02:20;99936.47;;;19.39;69.83
60427;BME280;46274;47.168;27.604;2022-09-09T11:08:29;99843.50;;;18.77;70.49
60427;BME280;46274;47.168;27.604;2022-09-09T11:14:49;99875.78;;;19.29;71.53
60427;BME280;46274;47.168;27.604;2022-09-09T11:21:01;99782.25;;;18.77;71.66
60427;BME280;46274;47.168;27.604;2022-09-09T11:27:20;99908.72;;;19.64;72.20
60427;BME280;46274;47.168;27.604;2022-09-09T11:40:20;99926.75;;;20.19;72.04
60427;BME280;46274;47.168;27.604;2022-09-09T11:46:33;99863.78;;;19.94;69.92
60427;BME280;46274;47.168;27.604;2022-09-09T11:52:41;99914.56;;;20.43;69.18
60427;BME280;46274;47.168;27.604;2022-09-09T11:58:59;99925.06;;;20.46;68.34
60427;BME280;46274;47.168;27.604;2022-09-09T12:05:08;99921.59;;;20.63;67.24
60427;BME280;46274;47.168;27.604;2022-09-09T12:11:11;99916.78;;;20.87;67.96
60427;BME280;46274;47.168;27.604;2022-09-09T12:17:27;99846.66;;;20.78;66.54
60427;BME280;46274;47.168;27.604;2022-09-09T12:30:14;99903.03;;;21.93;65.63
60427;BME280;46274;47.168;27.604;2022-09-09T12:36:28;99898.84;;;21.91;63.86
60427;BME280;46274;47.168;27.604;2022-09-09T12:42:41;99873.50;;;21.94;63.96
60427;BME280;46274;47.168;27.604;2022-09-09T12:48:58;99865.13;;;22.55;62.77
60427;BME280;46274;47.168;27.604;2022-09-09T12:55:02;99883.69;;;22.59;62.61
60427;BME280;46274;47.168;27.604;2022-09-09T13:01:17;99826.72;;;22.53;62.75
60427;BME280;46274;47.168;27.604;2022-09-09T13:07:22;99853.72;;;21.97;63.83
60427;BME280;46274;47.168;27.604;2022-09-09T13:13:37;99762.66;;;21.48;64.58
60427;BME280;46274;47.168;27.604;2022-09-09T13:19:45;99859.47;;;21.95;63.98
60427;BME280;46274;47.168;27.604;2022-09-09T13:25:56;99889.63;;;22.02;64.96
60427;BME280;46274;47.168;27.604;2022-09-09T13:32:20;99870.41;;;22.56;63.97
60427;BME280;46274;47.168;27.604;2022-09-09T13:38:23;99887.22;;;22.82;61.90
60427;BME280;46274;47.168;27.604;2022-09-09T13:51:21;99766.09;;;21.60;62.97
60427;BME280;46274;47.168;27.604;2022-09-09T13:58:03;99763.75;;;21.30;63.48
60427;BME280;46274;47.168;27.604;2022-09-09T14:29:43;99900.59;;;21.58;67.01
60427;BME280;46274;47.168;27.604;2022-09-09T14:42:02;99815.09;;;21.53;66.01
60427;BME280;46274;47.168;27.604;2022-09-09T14:48:04;99811.22;;;21.54;66.26
60427;BME280;46274;47.168;27.604;2022-09-09T14:54:06;99890.09;;;21.21;68.48
60427;BME280;46274;47.168;27.604;2022-09-09T15:00:09;99888.16;;;21.05;68.24
60427;BME280;46274;47.168;27.604;2022-09-09T15:06:14;99841.25;;;20.66;69.13
60427;BME280;46274;47.168;27.604;2022-09-09T15:12:18;99867.31;;;20.92;68.31
60427;BME280;46274;47.168;27.604;2022-09-09T15:18:21;99878.66;;;20.79;70.01
60427;BME280;46274;47.168;27.604;2022-09-09T15:24:23;99874.88;;;20.85;70.53
60427;BME280;46274;47.168;27.604;2022-09-09T15:30:24;99834.22;;;20.58;70.51
60427;BME280;46274;47.168;27.604;2022-09-09T15:36:47;99891.59;;;21.29;69.35
60427;BME280;46274;47.168;27.604;2022-09-09T15:42:50;99832.66;;;20.79;70.78
60427;BME280;46274;47.168;27.604;2022-09-09T15:49:09;99854.44;;;20.52;72.81
60427;BME280;46274;47.168;27.604;2022-09-09T15:55:12;99802.94;;;20.19;73.40
60427;BME280;46274;47.168;27.604;2022-09-09T16:01:13;99847.50;;;20.49;73.06
60427;BME280;46274;47.168;27.604;2022-09-09T16:07:16;99813.88;;;20.31;72.41
60427;BME280;46274;47.168;27.604;2022-09-09T16:13:18;99826.66;;;19.68;75.64
60427;BME280;46274;47.168;27.604;2022-09-09T16:19:20;99873.34;;;19.91;75.63
60427;BME280;46274;47.168;27.604;2022-09-09T16:25:22;99871.34;;;20.56;72.35
60427;BME280;46274;47.168;27.604;2022-09-09T16:31:26;99892.31;;;20.04;75.46
60427;BME280;46274;47.168;27.604;2022-09-09T16:37:29;99865.94;;;19.92;75.01
60427;BME280;46274;47.168;27.604;2022-09-09T16:43:31;99818.09;;;19.29;77.09
60427;BME280;46274;47.168;27.604;2022-09-09T16:49:34;99873.72;;;19.36;78.98
60427;BME280;46274;47.168;27.604;2022-09-09T16:55:39;99879.19;;;19.95;75.06
60427;BME280;46274;47.168;27.604;2022-09-09T17:01:44;99901.16;;;20.07;74.62
60427;BME280;46274;47.168;27.604;2022-09-09T17:07:46;99913.75;;;20.31;73.66
60427;BME280;46274;47.168;27.604;2022-09-09T17:13:48;99910.53;;;19.82;75.77
60427;BME280;46274;47.168;27.604;2022-09-09T17:19:49;99831.44;;;19.25;75.66
60427;BME280;46274;47.168;27.604;2022-09-09T17:25:58;99918.53;;;19.60;77.34
60427;BME280;46274;47.168;27.604;2022-09-09T17:32:02;99899.66;;;19.87;75.55
60427;BME280;46274;47.168;27.604;2022-09-09T17:38:04;99874.66;;;18.83;79.61
60427;BME280;46274;47.168;27.604;2022-09-09T17:44:08;99825.50;;;18.51;79.08
60427;BME280;46274;47.168;27.604;2022-09-09T17:50:11;99867.41;;;19.24;76.10
60427;BME280;46274;47.168;27.604;2022-09-09T17:56:16;99872.53;;;19.08;77.35
60427;BME280;46274;47.168;27.604;2022-09-09T18:02:18;99930.72;;;19.88;75.47
60427;BME280;46274;47.168;27.604;2022-09-09T18:08:20;99905.84;;;19.59;76.38
60427;BME280;46274;47.168;27.604;2022-09-09T18:14:28;99867.41;;;19.12;77.07
60427;BME280;46274;47.168;27.604;2022-09-09T18:20:31;99919.88;;;19.69;74.71
60427;BME280;46274;47.168;27.604;2022-09-09T18:26:34;99940.50;;;19.25;78.35
60427;BME280;46274;47.168;27.604;2022-09-09T18:32:39;99932.66;;;19.52;77.06
60427;BME280;46274;47.168;27.604;2022-09-09T18:38:42;99947.88;;;19.12;78.14
60427;BME280;46274;47.168;27.604;2022-09-09T18:44:44;99959.50;;;19.61;75.91
60427;BME280;46274;47.168;27.604;2022-09-09T18:50:46;99941.31;;;19.13;78.08
60427;BME280;46274;47.168;27.604;2022-09-09T18:56:48;99957.97;;;19.66;76.65
60427;BME280;46274;47.168;27.604;2022-09-09T19:02:50;99939.63;;;19.12;78.01
60427;BME280;46274;47.168;27.604;2022-09-09T19:08:53;99873.47;;;19.02;76.53
60427;BME280;46274;47.168;27.604;2022-09-09T19:15:04;99946.91;;;19.07;78.41
60427;BME280;46274;47.168;27.604;2022-09-09T19:21:10;99956.16;;;19.36;77.44
60427;BME280;46274;47.168;27.604;2022-09-09T19:27:12;99907.53;;;18.22;82.25
60427;BME280;46274;47.168;27.604;2022-09-09T19:33:14;99931.47;;;18.94;79.59
60427;BME280;46274;47.168;27.604;2022-09-09T19:39:16;99936.69;;;18.84;79.62
60427;BME280;46274;47.168;27.604;2022-09-09T19:45:18;99921.91;;;18.66;82.06
60427;BME280;46274;47.168;27.604;2022-09-09T19:51:21;99928.25;;;18.85;79.62
60427;BME280;46274;47.168;27.604;2022-09-09T19:57:23;99938.94;;;19.05;78.11
60427;BME280;46274;47.168;27.604;2022-09-09T20:03:29;99907.03;;;18.74;78.89
60427;BME280;46274;47.168;27.604;2022-09-09T20:09:30;99937.34;;;18.67;79.46
60427;BME280;46274;47.168;27.604;2022-09-09T20:15:32;99912.41;;;18.39;81.88
60427;BME280;46274;47.168;27.604;2022-09-09T20:21:37;99930.06;;;19.03;78.20
60427;BME280;46274;47.168;27.604;2022-09-09T20:27:41;99918.81;;;18.33;80.90
60427;BME280;46274;47.168;27.604;2022-09-09T20:33:54;99924.44;;;18.38;80.98
60427;BME280;46274;47.168;27.604;2022-09-09T20:39:56;99912.16;;;18.59;80.43
60427;BME280;46274;47.168;27.604;2022-09-09T20:46:02;99863.94;;;18.33;78.62
60427;BME280;46274;47.168;27.604;2022-09-09T20:52:05;99915.22;;;18.81;78.30
60427;BME280;46274;47.168;27.604;2022-09-09T20:58:07;99869.97;;;17.93;80.20
60427;BME280;46274;47.168;27.604;2022-09-09T21:04:09;99906.53;;;18.65;78.21
60427;BME280;46274;47.168;27.604;2022-09-09T21:10:11;99910.44;;;18.27;80.94
60427;BME280;46274;47.168;27.604;2022-09-09T21:16:16;99922.63;;;18.31;80.05
60427;BME280;46274;47.168;27.604;2022-09-09T21:22:21;99903.56;;;18.37;79.88
60427;BME280;46274;47.168;27.604;2022-09-09T21:28:23;99878.59;;;18.26;79.83
60427;BME280;46274;47.168;27.604;2022-09-09T21:34:29;99908.13;;;18.43;80.25
60427;BME280;46274;47.168;27.604;2022-09-09T21:40:30;99907.94;;;18.86;77.99
60427;BME280;46274;47.168;27.604;2022-09-09T21:46:32;99898.03;;;18.06;81.68
60427;BME280;46274;47.168;27.604;2022-09-09T21:52:34;99911.19;;;18.35;79.76
60427;BME280;46274;47.168;27.604;2022-09-09T21:58:37;99908.41;;;18.53;79.68
60427;BME280;46274;47.168;27.604;2022-09-09T22:04:41;99833.69;;;18.09;79.24
60427;BME280;46274;47.168;27.604;2022-09-09T22:10:45;99897.22;;;18.66;78.80
60427;BME280;46274;47.168;27.604;2022-09-09T22:16:47;99823.00;;;18.19;78.88
60427;BME280;46274;47.168;27.604;2022-09-09T22:22:48;99878.81;;;18.55;78.93
60427;BME280;46274;47.168;27.604;2022-09-09T22:28:50;99823.91;;;17.64;80.67
60427;BME280;46274;47.168;27.604;2022-09-09T22:34:54;99903.03;;;18.46;79.97
60427;BME280;46274;47.168;27.604;2022-09-09T22:40:56;99887.88;;;18.44;80.42
60427;BME280;46274;47.168;27.604;2022-09-09T22:46:59;99827.56;;;18.25;80.83
60427;BME280;46274;47.168;27.604;2022-09-09T22:53:02;99895.78;;;18.64;79.04
60427;BME280;46274;47.168;27.604;2022-09-09T22:59:05;99891.41;;;18.14;80.93
60427;BME280;46274;47.168;27.604;2022-09-09T23:05:07;99871.03;;;18.10;80.60
60427;BME280;46274;47.168;27.604;2022-09-09T23:11:10;99869.78;;;18.06;81.89
60427;BME280;46274;47.168;27.604;2022-09-09T23:17:12;99856.19;;;17.99;81.60
60427;BME280;46274;47.168;27.604;2022-09-09T23:23:19;99844.88;;;17.71;83.09
60427;BME280;46274;47.168;27.604;2022-09-09T23:29:20;99842.56;;;17.93;81.57
60427;BME280;46274;47.168;27.604;2022-09-09T23:35:22;99845.69;;;18.26;79.57
60427;BME280;46274;47.168;27.604;2022-09-09T23:41:25;99800.53;;;17.80;80.40
60427;BME280;46274;47.168;27.604;2022-09-09T23:47:27;99819.69;;;17.99;80.05
60427;BME280;46274;47.168;27.604;2022-09-09T23:53:29;99869.72;;;18.43;78.68
60427;BME280;46274;47.168;27.604;2022-09-09T23:59:31;99847.41;;;18.09;81.87
